Terminal Aerodrome Forecast
Issued by NWS

Current Version | Previous Version | Text Only | Print | Product List | Glossary Off
Versions: 1 2 3 4 5 6 7 8 9 10 11 12 13 14 15 16 17 18 19 20 21

000
FTUS41 KILN 271500 AAA
TAFLUK
TAF AMD
KLUK 271500Z 2715/2812 20008KT P6SM SCT045 BKN250
     FM271600 20014G24KT P6SM BKN250
     FM272300 20012KT P6SM BKN250
     FM280900 21012KT P6SM SCT040 BKN200=

USA.gov is the U.S. government's official web portal to all federal, state and local government web resources and services.